sensor_id;sensor_type;location;lat;lon;timestamp;P1;durP1;ratioP1;P2;durP2;ratioP2
21754;SDS011;11039;50.028;19.938;2022-07-22T00:01:46;6.93;;;4.93;;
21754;SDS011;11039;50.028;19.938;2022-07-22T00:04:12;9.30;;;5.15;;
21754;SDS011;11039;50.028;19.938;2022-07-22T00:06:38;12.90;;;5.07;;
21754;SDS011;11039;50.028;19.938;2022-07-22T00:09:04;12.45;;;4.75;;
21754;SDS011;11039;50.028;19.938;2022-07-22T00:11:30;8.50;;;4.88;;
21754;SDS011;11039;50.028;19.938;2022-07-22T00:13:56;11.68;;;5.10;;
21754;SDS011;11039;50.028;19.938;2022-07-22T00:16:22;6.75;;;4.07;;
21754;SDS011;11039;50.028;19.938;2022-07-22T00:18:48;9.77;;;4.40;;
21754;SDS011;11039;50.028;19.938;2022-07-22T00:21:14;8.82;;;4.88;;
21754;SDS011;11039;50.028;19.938;2022-07-22T00:23:40;7.05;;;4.60;;
21754;SDS011;11039;50.028;19.938;2022-07-22T00:26:06;5.70;;;4.05;;
21754;SDS011;11039;50.028;19.938;2022-07-22T00:28:32;10.40;;;4.68;;
21754;SDS011;11039;50.028;19.938;2022-07-22T00:30:58;10.43;;;4.72;;
21754;SDS011;11039;50.028;19.938;2022-07-22T00:33:24;8.05;;;4.80;;
21754;SDS011;11039;50.028;19.938;2022-07-22T00:35:50;6.82;;;4.40;;
21754;SDS011;11039;50.028;19.938;2022-07-22T00:38:16;8.60;;;4.40;;
21754;SDS011;11039;50.028;19.938;2022-07-22T00:40:42;7.90;;;4.60;;
21754;SDS011;11039;50.028;19.938;2022-07-22T00:43:08;7.75;;;4.70;;
21754;SDS011;11039;50.028;19.938;2022-07-22T00:45:34;6.80;;;4.05;;
21754;SDS011;11039;50.028;19.938;2022-07-22T00:48:00;8.82;;;4.80;;
21754;SDS011;11039;50.028;19.938;2022-07-22T00:50:26;10.90;;;4.60;;
21754;SDS011;11039;50.028;19.938;2022-07-22T00:52:52;8.43;;;5.05;;
21754;SDS011;11039;50.028;19.938;2022-07-22T00:55:18;8.65;;;4.75;;
21754;SDS011;11039;50.028;19.938;2022-07-22T00:57:44;7.68;;;4.32;;
21754;SDS011;11039;50.028;19.938;2022-07-22T01:00:12;8.35;;;4.78;;
21754;SDS011;11039;50.028;19.938;2022-07-22T01:02:39;7.22;;;4.28;;
21754;SDS011;11039;50.028;19.938;2022-07-22T01:05:05;10.82;;;5.30;;
21754;SDS011;11039;50.028;19.938;2022-07-22T01:07:32;9.02;;;4.80;;
21754;SDS011;11039;50.028;19.938;2022-07-22T01:09:58;6.22;;;4.18;;
21754;SDS011;11039;50.028;19.938;2022-07-22T01:12:24;7.05;;;4.82;;
21754;SDS011;11039;50.028;19.938;2022-07-22T01:14:50;9.30;;;5.03;;
21754;SDS011;11039;50.028;19.938;2022-07-22T01:17:16;7.70;;;4.90;;
21754;SDS011;11039;50.028;19.938;2022-07-22T01:19:42;7.80;;;4.85;;
21754;SDS011;11039;50.028;19.938;2022-07-22T01:22:08;7.50;;;5.13;;
21754;SDS011;11039;50.028;19.938;2022-07-22T01:24:34;7.82;;;4.88;;
21754;SDS011;11039;50.028;19.938;2022-07-22T01:27:00;7.15;;;5.03;;
21754;SDS011;11039;50.028;19.938;2022-07-22T01:29:26;10.63;;;5.00;;
21754;SDS011;11039;50.028;19.938;2022-07-22T01:31:52;14.38;;;5.53;;
21754;SDS011;11039;50.028;19.938;2022-07-22T01:34:18;9.43;;;5.15;;
21754;SDS011;11039;50.028;19.938;2022-07-22T01:36:44;8.73;;;5.28;;
21754;SDS011;11039;50.028;19.938;2022-07-22T01:39:10;48.53;;;6.05;;
21754;SDS011;11039;50.028;19.938;2022-07-22T01:41:36;11.45;;;4.80;;
21754;SDS011;11039;50.028;19.938;2022-07-22T01:44:03;7.53;;;5.25;;
21754;SDS011;11039;50.028;19.938;2022-07-22T01:46:29;9.68;;;5.20;;
21754;SDS011;11039;50.028;19.938;2022-07-22T01:48:55;10.30;;;5.22;;
21754;SDS011;11039;50.028;19.938;2022-07-22T01:51:21;7.93;;;5.10;;
21754;SDS011;11039;50.028;19.938;2022-07-22T01:53:47;10.13;;;5.53;;
21754;SDS011;11039;50.028;19.938;2022-07-22T01:56:13;10.43;;;5.15;;
21754;SDS011;11039;50.028;19.938;2022-07-22T01:58:39;8.45;;;5.13;;
21754;SDS011;11039;50.028;19.938;2022-07-22T02:01:06;7.10;;;4.80;;
21754;SDS011;11039;50.028;19.938;2022-07-22T02:03:32;10.32;;;5.57;;
21754;SDS011;11039;50.028;19.938;2022-07-22T02:05:58;11.10;;;5.35;;
21754;SDS011;11039;50.028;19.938;2022-07-22T02:08:24;7.72;;;5.25;;
21754;SDS011;11039;50.028;19.938;2022-07-22T02:10:50;7.70;;;4.85;;
21754;SDS011;11039;50.028;19.938;2022-07-22T02:13:16;7.57;;;4.72;;
21754;SDS011;11039;50.028;19.938;2022-07-22T02:15:42;8.52;;;4.63;;
21754;SDS011;11039;50.028;19.938;2022-07-22T02:20:37;8.35;;;4.65;;
21754;SDS011;11039;50.028;19.938;2022-07-22T02:23:03;10.10;;;5.50;;
21754;SDS011;11039;50.028;19.938;2022-07-22T02:25:29;8.50;;;5.22;;
21754;SDS011;11039;50.028;19.938;2022-07-22T02:27:55;9.15;;;5.40;;
21754;SDS011;11039;50.028;19.938;2022-07-22T02:30:21;9.63;;;5.55;;
21754;SDS011;11039;50.028;19.938;2022-07-22T02:32:47;10.05;;;4.90;;
21754;SDS011;11039;50.028;19.938;2022-07-22T02:35:13;6.00;;;4.65;;
21754;SDS011;11039;50.028;19.938;2022-07-22T02:37:39;11.18;;;6.07;;
21754;SDS011;11039;50.028;19.938;2022-07-22T02:40:05;8.15;;;5.18;;
21754;SDS011;11039;50.028;19.938;2022-07-22T02:42:32;7.18;;;5.47;;
21754;SDS011;11039;50.028;19.938;2022-07-22T02:44:58;8.40;;;5.32;;
21754;SDS011;11039;50.028;19.938;2022-07-22T02:47:25;10.18;;;6.28;;
21754;SDS011;11039;50.028;19.938;2022-07-22T02:49:51;7.53;;;5.47;;
21754;SDS011;11039;50.028;19.938;2022-07-22T02:52:17;10.60;;;5.75;;
21754;SDS011;11039;50.028;19.938;2022-07-22T02:54:43;7.82;;;5.38;;
21754;SDS011;11039;50.028;19.938;2022-07-22T02:57:09;10.82;;;5.95;;
21754;SDS011;11039;50.028;19.938;2022-07-22T02:59:35;12.45;;;5.80;;
21754;SDS011;11039;50.028;19.938;2022-07-22T03:02:01;12.70;;;6.63;;
21754;SDS011;11039;50.028;19.938;2022-07-22T03:04:27;8.50;;;6.82;;
21754;SDS011;11039;50.028;19.938;2022-07-22T03:06:53;9.55;;;7.05;;
21754;SDS011;11039;50.028;19.938;2022-07-22T03:09:19;11.93;;;6.78;;
21754;SDS011;11039;50.028;19.938;2022-07-22T03:11:46;15.65;;;7.72;;
21754;SDS011;11039;50.028;19.938;2022-07-22T03:14:12;11.32;;;6.50;;
21754;SDS011;11039;50.028;19.938;2022-07-22T03:16:38;13.93;;;7.63;;
21754;SDS011;11039;50.028;19.938;2022-07-22T03:19:04;16.08;;;7.40;;
21754;SDS011;11039;50.028;19.938;2022-07-22T03:21:30;10.48;;;7.18;;
21754;SDS011;11039;50.028;19.938;2022-07-22T03:23:56;15.43;;;7.38;;
21754;SDS011;11039;50.028;19.938;2022-07-22T03:26:23;12.95;;;7.53;;
21754;SDS011;11039;50.028;19.938;2022-07-22T03:28:49;12.55;;;7.90;;
21754;SDS011;11039;50.028;19.938;2022-07-22T03:31:15;13.27;;;7.90;;
21754;SDS011;11039;50.028;19.938;2022-07-22T03:33:41;11.57;;;7.63;;
21754;SDS011;11039;50.028;19.938;2022-07-22T03:36:07;11.30;;;8.18;;
21754;SDS011;11039;50.028;19.938;2022-07-22T03:38:34;14.50;;;7.45;;
21754;SDS011;11039;50.028;19.938;2022-07-22T03:41:00;12.68;;;7.93;;
21754;SDS011;11039;50.028;19.938;2022-07-22T03:43:26;11.32;;;7.82;;
21754;SDS011;11039;50.028;19.938;2022-07-22T03:45:52;13.30;;;7.70;;
21754;SDS011;11039;50.028;19.938;2022-07-22T03:48:18;11.95;;;7.50;;
21754;SDS011;11039;50.028;19.938;2022-07-22T03:50:44;12.23;;;8.25;;
21754;SDS011;11039;50.028;19.938;2022-07-22T03:53:10;11.13;;;7.88;;
21754;SDS011;11039;50.028;19.938;2022-07-22T03:55:36;10.85;;;7.35;;
21754;SDS011;11039;50.028;19.938;2022-07-22T03:58:02;11.27;;;7.93;;
21754;SDS011;11039;50.028;19.938;2022-07-22T04:00:28;11.48;;;7.75;;
21754;SDS011;11039;50.028;19.938;2022-07-22T04:02:54;12.32;;;7.88;;
21754;SDS011;11039;50.028;19.938;2022-07-22T04:05:20;10.43;;;7.47;;
21754;SDS011;11039;50.028;19.938;2022-07-22T04:07:46;11.77;;;7.93;;
21754;SDS011;11039;50.028;19.938;2022-07-22T04:10:13;13.02;;;7.30;;
21754;SDS011;11039;50.028;19.938;2022-07-22T04:12:39;10.15;;;8.05;;
21754;SDS011;11039;50.028;19.938;2022-07-22T04:15:06;12.57;;;7.95;;
21754;SDS011;11039;50.028;19.938;2022-07-22T04:17:32;14.52;;;7.78;;
21754;SDS011;11039;50.028;19.938;2022-07-22T04:19:58;13.43;;;7.68;;
21754;SDS011;11039;50.028;19.938;2022-07-22T04:22:25;10.77;;;7.30;;
21754;SDS011;11039;50.028;19.938;2022-07-22T04:24:52;10.93;;;7.90;;
21754;SDS011;11039;50.028;19.938;2022-07-22T04:27:18;10.32;;;7.97;;
21754;SDS011;11039;50.028;19.938;2022-07-22T04:29:44;12.48;;;7.68;;
21754;SDS011;11039;50.028;19.938;2022-07-22T04:32:10;11.57;;;7.88;;
21754;SDS011;11039;50.028;19.938;2022-07-22T04:34:36;10.75;;;7.68;;
21754;SDS011;11039;50.028;19.938;2022-07-22T04:37:02;10.63;;;7.55;;
21754;SDS011;11039;50.028;19.938;2022-07-22T04:39:28;11.02;;;7.95;;
21754;SDS011;11039;50.028;19.938;2022-07-22T04:41:54;9.20;;;7.20;;
21754;SDS011;11039;50.028;19.938;2022-07-22T04:44:20;13.93;;;7.70;;
21754;SDS011;11039;50.028;19.938;2022-07-22T04:46:47;8.23;;;7.32;;
21754;SDS011;11039;50.028;19.938;2022-07-22T04:49:13;11.98;;;7.50;;
21754;SDS011;11039;50.028;19.938;2022-07-22T04:51:39;12.07;;;7.53;;
21754;SDS011;11039;50.028;19.938;2022-07-22T04:54:05;10.35;;;7.82;;
21754;SDS011;11039;50.028;19.938;2022-07-22T04:56:31;9.82;;;7.13;;
21754;SDS011;11039;50.028;19.938;2022-07-22T04:58:57;12.00;;;7.63;;
21754;SDS011;11039;50.028;19.938;2022-07-22T05:01:23;9.75;;;7.25;;
21754;SDS011;11039;50.028;19.938;2022-07-22T05:03:49;9.02;;;7.20;;
21754;SDS011;11039;50.028;19.938;2022-07-22T05:06:17;8.20;;;6.97;;
21754;SDS011;11039;50.028;19.938;2022-07-22T05:08:43;10.05;;;7.13;;
21754;SDS011;11039;50.028;19.938;2022-07-22T05:11:09;8.95;;;7.53;;
21754;SDS011;11039;50.028;19.938;2022-07-22T05:13:35;9.70;;;6.82;;
21754;SDS011;11039;50.028;19.938;2022-07-22T05:16:02;9.60;;;7.80;;
21754;SDS011;11039;50.028;19.938;2022-07-22T05:18:28;8.10;;;6.38;;
21754;SDS011;11039;50.028;19.938;2022-07-22T05:20:54;8.65;;;6.68;;
21754;SDS011;11039;50.028;19.938;2022-07-22T05:23:20;8.52;;;7.15;;
21754;SDS011;11039;50.028;19.938;2022-07-22T05:25:46;9.63;;;7.38;;
21754;SDS011;11039;50.028;19.938;2022-07-22T05:28:12;10.10;;;7.20;;
21754;SDS011;11039;50.028;19.938;2022-07-22T05:30:38;10.73;;;7.22;;
21754;SDS011;11039;50.028;19.938;2022-07-22T05:33:04;10.23;;;6.85;;
21754;SDS011;11039;50.028;19.938;2022-07-22T05:35:30;7.55;;;6.75;;
21754;SDS011;11039;50.028;19.938;2022-07-22T05:37:56;10.23;;;6.75;;
21754;SDS011;11039;50.028;19.938;2022-07-22T05:40:23;11.85;;;7.32;;
21754;SDS011;11039;50.028;19.938;2022-07-22T05:42:49;8.27;;;7.38;;
21754;SDS011;11039;50.028;19.938;2022-07-22T05:45:15;10.63;;;6.75;;
21754;SDS011;11039;50.028;19.938;2022-07-22T05:47:41;10.32;;;6.57;;
21754;SDS011;11039;50.028;19.938;2022-07-22T05:50:07;10.13;;;7.35;;
21754;SDS011;11039;50.028;19.938;2022-07-22T05:52:35;10.18;;;7.20;;
21754;SDS011;11039;50.028;19.938;2022-07-22T05:55:01;9.02;;;6.50;;
21754;SDS011;11039;50.028;19.938;2022-07-22T05:57:27;11.80;;;7.63;;
21754;SDS011;11039;50.028;19.938;2022-07-22T05:59:53;8.80;;;7.10;;
21754;SDS011;11039;50.028;19.938;2022-07-22T06:02:19;9.57;;;7.50;;
21754;SDS011;11039;50.028;19.938;2022-07-22T06:04:46;16.48;;;7.90;;
21754;SDS011;11039;50.028;19.938;2022-07-22T06:07:12;14.57;;;8.55;;
21754;SDS011;11039;50.028;19.938;2022-07-22T06:09:38;15.60;;;8.00;;
21754;SDS011;11039;50.028;19.938;2022-07-22T06:12:04;13.57;;;8.63;;
21754;SDS011;11039;50.028;19.938;2022-07-22T06:14:30;13.07;;;8.43;;
21754;SDS011;11039;50.028;19.938;2022-07-22T06:16:56;12.07;;;7.85;;
21754;SDS011;11039;50.028;19.938;2022-07-22T06:19:22;12.52;;;8.07;;
21754;SDS011;11039;50.028;19.938;2022-07-22T06:21:49;11.70;;;8.20;;
21754;SDS011;11039;50.028;19.938;2022-07-22T06:24:15;11.85;;;7.97;;
21754;SDS011;11039;50.028;19.938;2022-07-22T06:26:41;9.57;;;7.78;;
21754;SDS011;11039;50.028;19.938;2022-07-22T06:29:07;13.25;;;9.02;;
21754;SDS011;11039;50.028;19.938;2022-07-22T06:31:33;9.43;;;8.45;;
21754;SDS011;11039;50.028;19.938;2022-07-22T06:33:59;11.48;;;8.35;;
21754;SDS011;11039;50.028;19.938;2022-07-22T06:36:30;11.68;;;8.10;;
21754;SDS011;11039;50.028;19.938;2022-07-22T06:38:56;12.30;;;8.43;;
21754;SDS011;11039;50.028;19.938;2022-07-22T06:41:22;13.68;;;7.85;;
21754;SDS011;11039;50.028;19.938;2022-07-22T06:43:48;9.20;;;7.93;;
21754;SDS011;11039;50.028;19.938;2022-07-22T06:46:14;9.77;;;8.15;;
21754;SDS011;11039;50.028;19.938;2022-07-22T06:48:40;9.75;;;8.07;;
21754;SDS011;11039;50.028;19.938;2022-07-22T06:51:06;12.07;;;8.10;;
21754;SDS011;11039;50.028;19.938;2022-07-22T06:53:32;10.77;;;8.13;;
21754;SDS011;11039;50.028;19.938;2022-07-22T06:55:58;10.85;;;8.15;;
21754;SDS011;11039;50.028;19.938;2022-07-22T06:58:24;11.77;;;8.00;;
21754;SDS011;11039;50.028;19.938;2022-07-22T07:00:51;9.10;;;8.00;;
21754;SDS011;11039;50.028;19.938;2022-07-22T07:03:17;10.18;;;7.82;;
21754;SDS011;11039;50.028;19.938;2022-07-22T07:05:43;13.00;;;8.68;;
21754;SDS011;11039;50.028;19.938;2022-07-22T07:08:09;10.23;;;9.13;;
21754;SDS011;11039;50.028;19.938;2022-07-22T07:10:35;12.98;;;8.65;;
21754;SDS011;11039;50.028;19.938;2022-07-22T07:13:01;14.15;;;9.25;;
21754;SDS011;11039;50.028;19.938;2022-07-22T07:15:27;10.60;;;8.60;;
21754;SDS011;11039;50.028;19.938;2022-07-22T07:17:53;13.90;;;9.00;;
21754;SDS011;11039;50.028;19.938;2022-07-22T07:20:21;12.85;;;10.15;;
21754;SDS011;11039;50.028;19.938;2022-07-22T07:22:47;14.82;;;9.45;;
21754;SDS011;11039;50.028;19.938;2022-07-22T07:25:13;12.07;;;9.60;;
21754;SDS011;11039;50.028;19.938;2022-07-22T07:27:39;11.73;;;9.13;;
21754;SDS011;11039;50.028;19.938;2022-07-22T07:30:05;10.88;;;9.75;;
21754;SDS011;11039;50.028;19.938;2022-07-22T07:32:32;13.13;;;10.20;;
21754;SDS011;11039;50.028;19.938;2022-07-22T07:34:58;12.48;;;9.82;;
21754;SDS011;11039;50.028;19.938;2022-07-22T07:37:24;13.35;;;10.38;;
21754;SDS011;11039;50.028;19.938;2022-07-22T07:39:50;12.48;;;11.18;;
21754;SDS011;11039;50.028;19.938;2022-07-22T07:42:16;14.52;;;10.52;;
21754;SDS011;11039;50.028;19.938;2022-07-22T07:44:42;13.23;;;10.63;;
21754;SDS011;11039;50.028;19.938;2022-07-22T07:47:08;12.63;;;10.73;;
21754;SDS011;11039;50.028;19.938;2022-07-22T07:49:34;14.00;;;10.23;;
21754;SDS011;11039;50.028;19.938;2022-07-22T07:52:00;13.05;;;10.40;;
21754;SDS011;11039;50.028;19.938;2022-07-22T07:54:26;15.52;;;10.65;;
21754;SDS011;11039;50.028;19.938;2022-07-22T07:56:52;15.27;;;10.80;;
21754;SDS011;11039;50.028;19.938;2022-07-22T07:59:18;12.95;;;10.75;;
21754;SDS011;11039;50.028;19.938;2022-07-22T08:01:44;13.70;;;10.63;;
21754;SDS011;11039;50.028;19.938;2022-07-22T08:04:10;12.20;;;11.00;;
21754;SDS011;11039;50.028;19.938;2022-07-22T08:06:36;13.00;;;10.63;;
21754;SDS011;11039;50.028;19.938;2022-07-22T08:09:03;11.70;;;10.13;;
21754;SDS011;11039;50.028;19.938;2022-07-22T08:11:29;12.38;;;10.73;;
21754;SDS011;11039;50.028;19.938;2022-07-22T08:13:55;14.23;;;10.93;;
21754;SDS011;11039;50.028;19.938;2022-07-22T08:16:21;12.70;;;11.35;;
21754;SDS011;11039;50.028;19.938;2022-07-22T08:18:47;13.05;;;11.63;;
21754;SDS011;11039;50.028;19.938;2022-07-22T08:21:12;15.27;;;11.07;;
21754;SDS011;11039;50.028;19.938;2022-07-22T08:23:38;12.45;;;10.85;;
21754;SDS011;11039;50.028;19.938;2022-07-22T08:26:04;13.85;;;11.45;;
21754;SDS011;11039;50.028;19.938;2022-07-22T08:28:31;12.63;;;11.43;;
21754;SDS011;11039;50.028;19.938;2022-07-22T08:30:57;17.90;;;11.00;;
21754;SDS011;11039;50.028;19.938;2022-07-22T08:33:23;12.80;;;11.50;;
21754;SDS011;11039;50.028;19.938;2022-07-22T08:35:49;13.05;;;11.23;;
21754;SDS011;11039;50.028;19.938;2022-07-22T08:38:15;14.18;;;11.50;;
21754;SDS011;11039;50.028;19.938;2022-07-22T08:40:41;14.48;;;11.98;;
21754;SDS011;11039;50.028;19.938;2022-07-22T08:43:07;13.98;;;12.45;;
21754;SDS011;11039;50.028;19.938;2022-07-22T08:45:33;13.05;;;11.27;;
21754;SDS011;11039;50.028;19.938;2022-07-22T08:47:59;13.90;;;11.90;;
21754;SDS011;11039;50.028;19.938;2022-07-22T08:50:30;14.75;;;12.18;;
21754;SDS011;11039;50.028;19.938;2022-07-22T08:52:56;17.10;;;12.30;;
21754;SDS011;11039;50.028;19.938;2022-07-22T08:55:23;15.07;;;11.80;;
21754;SDS011;11039;50.028;19.938;2022-07-22T08:57:50;13.15;;;11.52;;
21754;SDS011;11039;50.028;19.938;2022-07-22T09:00:17;13.63;;;12.23;;
21754;SDS011;11039;50.028;19.938;2022-07-22T09:02:43;15.00;;;12.50;;
21754;SDS011;11039;50.028;19.938;2022-07-22T09:05:11;14.23;;;12.60;;
21754;SDS011;11039;50.028;19.938;2022-07-22T09:07:40;18.30;;;13.20;;
21754;SDS011;11039;50.028;19.938;2022-07-22T09:10:07;14.75;;;12.43;;
21754;SDS011;11039;50.028;19.938;2022-07-22T09:12:33;14.25;;;12.30;;
21754;SDS011;11039;50.028;19.938;2022-07-22T09:15:00;13.82;;;12.02;;
21754;SDS011;11039;50.028;19.938;2022-07-22T09:17:34;16.30;;;12.70;;
21754;SDS011;11039;50.028;19.938;2022-07-22T09:20:02;15.55;;;12.38;;
21754;SDS011;11039;50.028;19.938;2022-07-22T09:22:36;15.80;;;12.32;;
21754;SDS011;11039;50.028;19.938;2022-07-22T09:25:36;13.38;;;12.02;;
21754;SDS011;11039;50.028;19.938;2022-07-22T09:28:17;14.68;;;12.68;;
21754;SDS011;11039;50.028;19.938;2022-07-22T09:30:49;18.17;;;12.40;;
21754;SDS011;11039;50.028;19.938;2022-07-22T09:33:15;14.63;;;12.13;;
21754;SDS011;11039;50.028;19.938;2022-07-22T09:35:41;15.38;;;12.93;;
21754;SDS011;11039;50.028;19.938;2022-07-22T09:38:09;15.43;;;12.68;;
21754;SDS011;11039;50.028;19.938;2022-07-22T09:40:36;16.48;;;12.15;;
21754;SDS011;11039;50.028;19.938;2022-07-22T09:43:06;13.65;;;11.32;;
21754;SDS011;11039;50.028;19.938;2022-07-22T09:45:36;14.88;;;12.70;;
21754;SDS011;11039;50.028;19.938;2022-07-22T09:48:09;15.40;;;12.85;;
21754;SDS011;11039;50.028;19.938;2022-07-22T09:50:35;16.65;;;12.15;;
21754;SDS011;11039;50.028;19.938;2022-07-22T09:53:01;14.50;;;12.63;;
21754;SDS011;11039;50.028;19.938;2022-07-22T09:55:27;14.85;;;12.18;;
21754;SDS011;11039;50.028;19.938;2022-07-22T09:57:54;15.30;;;11.23;;
21754;SDS011;11039;50.028;19.938;2022-07-22T10:00:21;14.75;;;11.65;;
21754;SDS011;11039;50.028;19.938;2022-07-22T10:02:51;13.77;;;12.05;;
21754;SDS011;11039;50.028;19.938;2022-07-22T10:05:19;28.05;;;12.90;;
21754;SDS011;11039;50.028;19.938;2022-07-22T10:07:46;16.63;;;12.35;;
21754;SDS011;11039;50.028;19.938;2022-07-22T10:10:14;13.95;;;12.18;;
21754;SDS011;11039;50.028;19.938;2022-07-22T10:12:41;18.45;;;13.00;;
21754;SDS011;11039;50.028;19.938;2022-07-22T10:15:08;14.40;;;11.75;;
21754;SDS011;11039;50.028;19.938;2022-07-22T10:17:35;14.32;;;12.57;;
21754;SDS011;11039;50.028;19.938;2022-07-22T10:20:04;15.80;;;13.10;;
21754;SDS011;11039;50.028;19.938;2022-07-22T10:25:02;19.13;;;12.95;;
21754;SDS011;11039;50.028;19.938;2022-07-22T10:30:16;16.67;;;12.68;;
21754;SDS011;11039;50.028;19.938;2022-07-22T10:32:42;14.95;;;12.00;;
21754;SDS011;11039;50.028;19.938;2022-07-22T10:40:12;15.35;;;12.55;;
21754;SDS011;11039;50.028;19.938;2022-07-22T10:45:27;16.58;;;13.02;;
21754;SDS011;11039;50.028;19.938;2022-07-22T10:47:54;16.45;;;13.23;;
21754;SDS011;11039;50.028;19.938;2022-07-22T10:53:05;14.63;;;13.07;;
21754;SDS011;11039;50.028;19.938;2022-07-22T10:55:32;15.27;;;12.63;;
21754;SDS011;11039;50.028;19.938;2022-07-22T10:57:58;15.88;;;13.50;;
21754;SDS011;11039;50.028;19.938;2022-07-22T11:00:24;14.82;;;13.27;;
21754;SDS011;11039;50.028;19.938;2022-07-22T11:02:50;17.75;;;13.38;;
21754;SDS011;11039;50.028;19.938;2022-07-22T11:05:26;15.05;;;13.52;;
21754;SDS011;11039;50.028;19.938;2022-07-22T11:07:52;16.75;;;13.10;;
21754;SDS011;11039;50.028;19.938;2022-07-22T11:10:18;15.27;;;12.68;;
21754;SDS011;11039;50.028;19.938;2022-07-22T11:12:48;25.65;;;12.88;;
21754;SDS011;11039;50.028;19.938;2022-07-22T11:15:15;19.58;;;13.60;;
21754;SDS011;11039;50.028;19.938;2022-07-22T11:17:41;16.00;;;13.13;;
21754;SDS011;11039;50.028;19.938;2022-07-22T11:20:09;14.88;;;12.38;;
21754;SDS011;11039;50.028;19.938;2022-07-22T11:22:35;14.75;;;12.88;;
21754;SDS011;11039;50.028;19.938;2022-07-22T11:25:05;14.23;;;12.32;;
21754;SDS011;11039;50.028;19.938;2022-07-22T11:27:32;14.75;;;13.23;;
21754;SDS011;11039;50.028;19.938;2022-07-22T11:29:58;16.10;;;12.25;;
21754;SDS011;11039;50.028;19.938;2022-07-22T11:32:25;17.27;;;13.93;;
21754;SDS011;11039;50.028;19.938;2022-07-22T11:34:52;16.30;;;12.80;;
21754;SDS011;11039;50.028;19.938;2022-07-22T11:37:19;15.65;;;13.52;;
21754;SDS011;11039;50.028;19.938;2022-07-22T11:39:48;15.27;;;13.07;;
21754;SDS011;11039;50.028;19.938;2022-07-22T11:42:14;18.17;;;12.90;;
21754;SDS011;11039;50.028;19.938;2022-07-22T11:44:40;16.10;;;13.77;;
21754;SDS011;11039;50.028;19.938;2022-07-22T11:47:07;15.70;;;13.82;;
21754;SDS011;11039;50.028;19.938;2022-07-22T11:49:33;15.48;;;13.88;;
21754;SDS011;11039;50.028;19.938;2022-07-22T11:52:00;16.23;;;13.30;;
21754;SDS011;11039;50.028;19.938;2022-07-22T11:54:26;14.98;;;13.48;;
21754;SDS011;11039;50.028;19.938;2022-07-22T11:56:53;14.70;;;13.10;;
21754;SDS011;11039;50.028;19.938;2022-07-22T11:59:20;15.63;;;13.73;;
21754;SDS011;11039;50.028;19.938;2022-07-22T12:01:46;15.40;;;12.93;;
21754;SDS011;11039;50.028;19.938;2022-07-22T12:04:14;15.38;;;13.23;;
21754;SDS011;11039;50.028;19.938;2022-07-22T12:06:41;14.13;;;12.63;;
21754;SDS011;11039;50.028;19.938;2022-07-22T12:09:08;13.27;;;11.82;;
21754;SDS011;11039;50.028;19.938;2022-07-22T12:11:36;16.75;;;13.15;;
21754;SDS011;11039;50.028;19.938;2022-07-22T12:14:06;18.58;;;12.80;;
21754;SDS011;11039;50.028;19.938;2022-07-22T12:16:32;16.85;;;13.43;;
21754;SDS011;11039;50.028;19.938;2022-07-22T12:21:28;19.90;;;13.52;;
21754;SDS011;11039;50.028;19.938;2022-07-22T12:24:05;15.20;;;13.60;;
21754;SDS011;11039;50.028;19.938;2022-07-22T12:31:44;15.20;;;13.48;;
21754;SDS011;11039;50.028;19.938;2022-07-22T12:34:10;14.57;;;12.95;;
21754;SDS011;11039;50.028;19.938;2022-07-22T12:36:36;14.52;;;12.80;;
21754;SDS011;11039;50.028;19.938;2022-07-22T12:39:15;15.88;;;13.18;;
21754;SDS011;11039;50.028;19.938;2022-07-22T12:41:45;15.52;;;12.95;;
21754;SDS011;11039;50.028;19.938;2022-07-22T12:44:30;14.63;;;13.00;;
21754;SDS011;11039;50.028;19.938;2022-07-22T12:46:56;13.27;;;11.85;;
21754;SDS011;11039;50.028;19.938;2022-07-22T12:49:23;16.02;;;13.35;;
21754;SDS011;11039;50.028;19.938;2022-07-22T12:52:08;14.63;;;13.13;;
21754;SDS011;11039;50.028;19.938;2022-07-22T12:54:35;13.82;;;12.27;;
21754;SDS011;11039;50.028;19.938;2022-07-22T12:57:01;14.27;;;12.80;;
21754;SDS011;11039;50.028;19.938;2022-07-22T12:59:28;14.43;;;12.60;;
21754;SDS011;11039;50.028;19.938;2022-07-22T13:01:54;13.98;;;12.20;;
21754;SDS011;11039;50.028;19.938;2022-07-22T13:04:20;13.93;;;12.43;;
21754;SDS011;11039;50.028;19.938;2022-07-22T13:06:46;15.90;;;12.30;;
21754;SDS011;11039;50.028;19.938;2022-07-22T13:09:12;13.77;;;12.30;;
21754;SDS011;11039;50.028;19.938;2022-07-22T13:11:38;14.68;;;12.77;;
21754;SDS011;11039;50.028;19.938;2022-07-22T13:14:08;15.43;;;12.50;;
21754;SDS011;11039;50.028;19.938;2022-07-22T13:16:34;13.90;;;12.40;;
21754;SDS011;11039;50.028;19.938;2022-07-22T13:19:00;13.90;;;12.60;;
21754;SDS011;11039;50.028;19.938;2022-07-22T13:21:26;13.25;;;11.85;;
21754;SDS011;11039;50.028;19.938;2022-07-22T13:23:52;13.15;;;11.80;;
21754;SDS011;11039;50.028;19.938;2022-07-22T13:26:18;14.18;;;11.68;;
21754;SDS011;11039;50.028;19.938;2022-07-22T13:28:45;13.63;;;11.90;;
21754;SDS011;11039;50.028;19.938;2022-07-22T13:31:11;14.18;;;12.52;;
21754;SDS011;11039;50.028;19.938;2022-07-22T13:33:37;12.90;;;11.60;;
21754;SDS011;11039;50.028;19.938;2022-07-22T13:36:04;13.10;;;11.80;;
21754;SDS011;11039;50.028;19.938;2022-07-22T13:38:30;13.30;;;11.88;;
21754;SDS011;11039;50.028;19.938;2022-07-22T13:40:56;13.35;;;11.95;;
21754;SDS011;11039;50.028;19.938;2022-07-22T13:43:23;14.10;;;12.00;;
21754;SDS011;11039;50.028;19.938;2022-07-22T13:45:49;13.38;;;11.93;;
21754;SDS011;11039;50.028;19.938;2022-07-22T13:48:16;12.73;;;11.43;;
21754;SDS011;11039;50.028;19.938;2022-07-22T13:50:45;13.35;;;12.10;;
21754;SDS011;11039;50.028;19.938;2022-07-22T13:53:12;13.57;;;12.18;;
21754;SDS011;11039;50.028;19.938;2022-07-22T13:55:38;14.13;;;11.10;;
21754;SDS011;11039;50.028;19.938;2022-07-22T13:58:04;15.90;;;12.10;;
21754;SDS011;11039;50.028;19.938;2022-07-22T14:00:31;13.88;;;11.77;;
21754;SDS011;11039;50.028;19.938;2022-07-22T14:02:57;13.20;;;11.80;;
21754;SDS011;11039;50.028;19.938;2022-07-22T14:05:23;12.63;;;11.35;;
21754;SDS011;11039;50.028;19.938;2022-07-22T14:07:49;13.27;;;11.90;;
21754;SDS011;11039;50.028;19.938;2022-07-22T14:10:15;13.85;;;11.82;;
21754;SDS011;11039;50.028;19.938;2022-07-22T14:12:41;12.95;;;11.63;;
21754;SDS011;11039;50.028;19.938;2022-07-22T14:15:08;54.10;;;19.55;;
21754;SDS011;11039;50.028;19.938;2022-07-22T14:17:34;32.30;;;16.65;;
21754;SDS011;11039;50.028;19.938;2022-07-22T14:20:00;25.05;;;13.73;;
21754;SDS011;11039;50.028;19.938;2022-07-22T14:22:28;20.70;;;13.90;;
21754;SDS011;11039;50.028;19.938;2022-07-22T14:24:55;22.90;;;13.52;;
21754;SDS011;11039;50.028;19.938;2022-07-22T14:27:21;17.00;;;12.15;;
21754;SDS011;11039;50.028;19.938;2022-07-22T14:29:47;17.80;;;11.52;;
21754;SDS011;11039;50.028;19.938;2022-07-22T14:32:13;13.55;;;11.48;;
21754;SDS011;11039;50.028;19.938;2022-07-22T14:34:40;15.05;;;11.65;;
21754;SDS011;11039;50.028;19.938;2022-07-22T14:37:06;15.52;;;11.70;;
21754;SDS011;11039;50.028;19.938;2022-07-22T14:39:33;15.45;;;11.65;;
21754;SDS011;11039;50.028;19.938;2022-07-22T14:41:59;15.50;;;11.40;;